createdAt,value
2018-07-05T00:00:28.207Z,20.50
2018-07-05T00:01:28.196Z,20.35
2018-07-05T00:02:28.181Z,20.29
2018-07-05T00:03:28.173Z,20.23
2018-07-05T00:04:28.156Z,20.14
2018-07-05T00:05:28.245Z,20.11
2018-07-05T00:06:28.138Z,20.16
2018-07-05T00:07:28.120Z,20.10
2018-07-05T00:08:28.108Z,20.14
2018-07-05T00:09:28.104Z,20.01
2018-07-05T00:10:28.088Z,20.02
2018-07-05T00:11:28.076Z,19.99
2018-07-05T00:12:28.067Z,20.11
2018-07-05T00:13:28.048Z,20.10
2018-07-05T00:14:28.038Z,19.96
2018-07-05T00:15:28.026Z,19.92
2018-07-05T00:16:28.014Z,19.94
2018-07-05T00:17:28.002Z,19.96
2018-07-05T00:18:27.988Z,19.91
2018-07-05T00:19:27.985Z,19.99
2018-07-05T00:20:27.965Z,19.99
2018-07-05T00:21:27.955Z,20.08
2018-07-05T00:22:27.945Z,20.08
2018-07-05T00:23:27.927Z,20.08
2018-07-05T00:24:27.965Z,19.96
2018-07-05T00:25:27.903Z,19.99
2018-07-05T00:26:27.900Z,20.06
2018-07-05T00:27:27.880Z,20.11
2018-07-05T00:28:27.871Z,19.92
2018-07-05T00:29:27.855Z,19.96
2018-07-05T00:30:27.845Z,19.95
2018-07-05T00:31:27.841Z,19.83
2018-07-05T00:32:27.819Z,19.84
2018-07-05T00:33:27.809Z,19.83
2018-07-05T00:34:27.796Z,19.76
2018-07-05T00:35:27.781Z,19.80
2018-07-05T00:36:27.770Z,19.83
2018-07-05T00:37:27.765Z,19.91
2018-07-05T00:38:27.759Z,19.84
2018-07-05T00:39:27.737Z,19.86
2018-07-05T00:40:27.726Z,19.91
2018-07-05T00:41:27.714Z,19.95
2018-07-05T00:42:27.704Z,19.96
2018-07-05T00:43:27.684Z,20.05
2018-07-05T00:44:27.674Z,19.96
2018-07-05T00:45:27.714Z,19.94
2018-07-05T00:46:27.654Z,19.94
2018-07-05T00:47:27.634Z,19.96
2018-07-05T00:48:27.625Z,20.01
2018-07-05T00:49:27.619Z,19.94
2018-07-05T00:50:27.604Z,19.96
2018-07-05T00:51:27.584Z,19.83
2018-07-05T00:52:27.571Z,19.84
2018-07-05T00:53:27.566Z,19.80
2018-07-05T00:54:27.556Z,19.74
2018-07-05T00:55:27.536Z,19.77
2018-07-05T00:56:27.523Z,19.73
2018-07-05T00:57:27.513Z,19.63
2018-07-05T00:58:27.501Z,19.58
2018-07-05T00:59:27.494Z,19.61
2018-07-05T01:00:27.488Z,19.59
2018-07-05T01:01:27.492Z,19.54
2018-07-05T01:02:27.455Z,19.56
2018-07-05T01:03:27.435Z,19.51
2018-07-05T01:04:27.422Z,19.55
2018-07-05T01:05:27.414Z,19.44
2018-07-05T01:06:27.400Z,19.48
2018-07-05T01:07:27.389Z,19.44
2018-07-05T01:08:27.374Z,19.41
2018-07-05T01:09:27.365Z,19.48
2018-07-05T01:10:27.352Z,19.41
2018-07-05T01:11:27.338Z,19.39
2018-07-05T01:12:27.358Z,19.39
2018-07-05T01:13:27.310Z,19.39
2018-07-05T01:14:27.301Z,19.36
2018-07-05T01:15:27.286Z,19.29
2018-07-05T01:16:27.274Z,19.23
2018-07-05T01:17:27.266Z,19.25
2018-07-05T01:18:27.252Z,19.31
2018-07-05T01:19:27.234Z,19.25
2018-07-05T01:20:27.224Z,19.28
2018-07-05T01:21:27.218Z,19.21
2018-07-05T01:22:27.196Z,19.10
2018-07-05T01:23:27.185Z,19.25
2018-07-05T01:24:27.170Z,19.21
2018-07-05T01:25:27.159Z,19.22
2018-07-05T01:26:27.147Z,19.14
2018-07-05T01:27:27.135Z,19.18
2018-07-05T01:28:27.119Z,19.11
2018-07-05T01:29:27.108Z,19.10
2018-07-05T01:30:27.095Z,18.99
2018-07-05T01:31:27.084Z,19.02
2018-07-05T01:32:27.074Z,19.10
2018-07-05T01:33:27.057Z,18.98
2018-07-05T01:34:27.047Z,18.95
2018-07-05T01:35:27.030Z,18.91
2018-07-05T01:36:27.019Z,18.91
2018-07-05T01:37:27.009Z,18.90
2018-07-05T01:38:27.002Z,18.92
2018-07-05T01:39:26.985Z,18.78
2018-07-05T01:40:26.970Z,18.75
2018-07-05T01:41:27.104Z,18.78
2018-07-05T01:42:26.945Z,18.75
2018-07-05T01:43:26.928Z,18.76
2018-07-05T01:44:26.916Z,18.70
2018-07-05T01:45:26.904Z,18.66
2018-07-05T01:46:26.891Z,18.65
2018-07-05T01:47:26.883Z,18.62
2018-07-05T01:48:26.865Z,18.69
2018-07-05T01:49:26.851Z,18.65
2018-07-05T01:50:26.843Z,18.62
2018-07-05T01:51:26.827Z,18.63
2018-07-05T01:52:26.816Z,18.70
2018-07-05T01:53:26.816Z,18.65
2018-07-05T01:54:26.788Z,18.60
2018-07-05T01:55:26.780Z,18.51
2018-07-05T01:56:26.767Z,18.58
2018-07-05T01:57:26.755Z,18.48
2018-07-05T01:58:26.736Z,18.42
2018-07-05T01:59:26.725Z,18.44
2018-07-05T02:00:26.763Z,18.44
2018-07-05T02:01:26.700Z,18.47
2018-07-05T02:02:26.684Z,18.41
2018-07-05T02:03:26.675Z,18.50
2018-07-05T02:04:26.662Z,18.41
2018-07-05T02:05:26.648Z,18.47
2018-07-05T02:06:26.634Z,18.50
2018-07-05T02:07:26.624Z,18.47
2018-07-05T02:08:26.606Z,18.44
2018-07-05T02:09:26.597Z,18.48
2018-07-05T02:10:26.583Z,18.48
2018-07-05T02:11:26.567Z,18.47
2018-07-05T02:12:26.555Z,18.37
2018-07-05T02:13:26.547Z,18.36
2018-07-05T02:14:26.563Z,18.45
2018-07-05T02:15:26.521Z,18.37
2018-07-05T02:16:26.523Z,18.41
2018-07-05T02:17:26.494Z,18.44
2018-07-05T02:18:26.479Z,18.48
2018-07-05T02:19:26.463Z,18.51
2018-07-05T02:20:26.454Z,18.62
2018-07-05T02:21:26.455Z,18.62
2018-07-05T02:22:26.438Z,18.62
2018-07-05T02:23:26.431Z,18.52
2018-07-05T02:24:26.449Z,18.42
2018-07-05T02:25:26.396Z,18.41
2018-07-05T02:26:26.376Z,18.41
2018-07-05T02:27:26.366Z,18.37
2018-07-05T02:28:26.351Z,18.29
2018-07-05T02:29:26.336Z,18.18
2018-07-05T02:30:26.327Z,18.11
2018-07-05T02:31:26.319Z,18.17
2018-07-05T02:32:26.300Z,18.10
2018-07-05T02:33:26.291Z,18.02
2018-07-05T02:34:26.275Z,18.08
2018-07-05T02:35:26.259Z,18.14
2018-07-05T02:36:26.245Z,18.03
2018-07-05T02:37:26.244Z,18.15
2018-07-05T02:38:26.221Z,18.26
2018-07-05T02:39:26.211Z,18.17
2018-07-05T02:40:26.294Z,18.20
2018-07-05T02:41:26.190Z,18.18
2018-07-05T02:42:26.170Z,18.15
2018-07-05T02:43:26.157Z,18.14
2018-07-05T02:44:26.162Z,18.10
2018-07-05T02:45:26.133Z,18.12
2018-07-05T02:46:26.118Z,18.00
2018-07-05T02:47:26.104Z,18.08
2018-07-05T02:48:26.093Z,17.99
2018-07-05T02:49:26.076Z,18.03
2018-07-05T02:50:26.064Z,17.99
2018-07-05T02:51:26.054Z,17.99
2018-07-05T02:52:26.038Z,17.93
2018-07-05T02:53:26.026Z,17.99
2018-07-05T02:54:26.013Z,17.96
2018-07-05T02:55:26.005Z,17.99
2018-07-05T02:56:25.993Z,18.00
2018-07-05T02:57:25.975Z,17.99
2018-07-05T02:58:25.958Z,17.97
2018-07-05T02:59:25.946Z,17.93
2018-07-05T03:00:25.940Z,18.12
2018-07-05T03:01:25.919Z,18.10
2018-07-05T03:02:25.905Z,17.93
2018-07-05T03:03:25.895Z,17.96
2018-07-05T03:04:25.879Z,17.96
2018-07-05T03:05:25.866Z,17.92
2018-07-05T03:06:25.858Z,17.96
2018-07-05T03:07:25.847Z,17.84
2018-07-05T03:08:25.830Z,17.78
2018-07-05T03:09:25.820Z,17.89
2018-07-05T03:10:25.807Z,17.92
2018-07-05T03:11:25.789Z,17.96
2018-07-05T03:12:25.778Z,17.95
2018-07-05T03:13:25.763Z,18.18
2018-07-05T03:14:25.758Z,18.14
2018-07-05T03:15:25.737Z,18.29
2018-07-05T03:16:25.726Z,18.33
2018-07-05T03:17:25.715Z,18.42
2018-07-05T03:18:25.697Z,18.51
2018-07-05T03:19:25.685Z,18.65
2018-07-05T03:20:25.790Z,18.73
2018-07-05T03:21:25.659Z,18.90
2018-07-05T03:22:25.642Z,18.87
2018-07-05T03:23:25.683Z,18.92
2018-07-05T03:24:25.618Z,18.87
2018-07-05T03:25:25.604Z,18.88
2018-07-05T03:26:25.598Z,18.82
2018-07-05T03:27:25.588Z,18.72
2018-07-05T03:28:25.562Z,18.69
2018-07-05T03:29:25.555Z,18.72
2018-07-05T03:30:25.539Z,18.75
2018-07-05T03:31:25.527Z,18.70
2018-07-05T03:32:25.516Z,18.72
2018-07-05T03:33:25.499Z,18.78
2018-07-05T03:34:25.485Z,18.72
2018-07-05T03:35:25.484Z,18.88
2018-07-05T03:36:25.466Z,18.88
2018-07-05T03:37:25.457Z,18.92
2018-07-05T03:38:25.434Z,18.98
2018-07-05T03:39:25.477Z,18.90
2018-07-05T03:40:25.408Z,18.92
2018-07-05T03:41:25.395Z,18.91
2018-07-05T03:42:25.384Z,19.00
2018-07-05T03:43:25.374Z,18.98
2018-07-05T03:44:25.354Z,18.90
2018-07-05T03:45:25.345Z,18.62
2018-07-05T03:46:25.333Z,18.27
2018-07-05T03:47:25.317Z,18.05
2018-07-05T03:48:25.306Z,17.95
2018-07-05T03:49:25.292Z,17.92
2018-07-05T03:50:25.279Z,17.95
2018-07-05T03:51:25.266Z,17.96
2018-07-05T03:52:25.262Z,18.08
2018-07-05T03:53:25.239Z,18.10
2018-07-05T03:54:25.232Z,18.17
2018-07-05T03:55:25.219Z,18.18
2018-07-05T03:56:25.205Z,18.29
2018-07-05T03:57:25.189Z,18.32
2018-07-05T03:58:25.177Z,18.47
2018-07-05T03:59:25.167Z,18.54
2018-07-05T04:00:25.152Z,18.57
2018-07-05T04:01:25.137Z,18.65
2018-07-05T04:02:25.125Z,18.57
2018-07-05T04:03:25.111Z,18.69
2018-07-05T04:04:25.119Z,18.69
2018-07-05T04:05:25.086Z,18.80
2018-07-05T04:06:25.072Z,18.81
2018-07-05T04:07:25.056Z,18.84
2018-07-05T04:08:25.127Z,18.87
2018-07-05T04:09:25.040Z,18.92
2018-07-05T04:10:25.022Z,18.99
2018-07-05T04:11:25.010Z,19.06
2018-07-05T04:12:24.992Z,19.10
2018-07-05T04:13:24.977Z,19.21
2018-07-05T04:14:24.969Z,19.22
2018-07-05T04:15:24.953Z,19.31
2018-07-05T04:16:25.054Z,19.21
2018-07-05T04:17:24.925Z,19.32
2018-07-05T04:18:24.915Z,19.32
2018-07-05T04:19:25.015Z,19.28
2018-07-05T04:20:24.886Z,19.40
2018-07-05T04:21:24.874Z,19.40
2018-07-05T04:22:24.860Z,19.33
2018-07-05T04:23:24.851Z,19.31
2018-07-05T04:24:24.836Z,19.11
2018-07-05T04:25:24.819Z,19.02
2018-07-05T04:26:24.807Z,18.92
2018-07-05T04:27:24.794Z,18.94
2018-07-05T04:28:24.784Z,18.92
2018-07-05T04:29:24.775Z,18.90
2018-07-05T04:30:24.755Z,18.84
2018-07-05T04:31:24.745Z,18.85
2018-07-05T04:32:24.734Z,18.94
2018-07-05T04:33:24.716Z,18.99
2018-07-05T04:34:24.705Z,19.13
2018-07-05T04:35:24.815Z,18.99
2018-07-05T04:36:24.677Z,18.99
2018-07-05T04:37:24.665Z,18.99
2018-07-05T04:38:24.653Z,19.00
2018-07-05T04:39:24.648Z,18.94
2018-07-05T04:40:24.625Z,18.99
2018-07-05T04:41:24.614Z,18.94
2018-07-05T04:42:24.613Z,18.98
2018-07-05T04:43:24.592Z,19.06
2018-07-05T04:44:24.573Z,19.06
2018-07-05T04:45:24.566Z,18.98
2018-07-05T04:46:24.550Z,18.85
2018-07-05T04:47:24.535Z,18.88
2018-07-05T04:48:24.525Z,18.91
2018-07-05T04:49:24.511Z,18.98
2018-07-05T04:50:24.498Z,18.91
2018-07-05T04:51:24.486Z,18.95
2018-07-05T04:52:24.471Z,18.95
2018-07-05T04:53:24.461Z,18.92
2018-07-05T04:54:24.444Z,18.90
2018-07-05T04:55:24.468Z,18.88
2018-07-05T04:56:24.426Z,18.95
2018-07-05T04:57:24.406Z,18.91
2018-07-05T04:58:24.401Z,19.00
2018-07-05T04:59:24.412Z,18.87
2018-07-05T05:00:24.368Z,18.81
2018-07-05T05:01:24.355Z,18.81
2018-07-05T05:02:24.410Z,18.78
2018-07-05T05:03:24.336Z,18.88
2018-07-05T05:04:24.314Z,18.98
2018-07-05T05:05:24.308Z,18.95
2018-07-05T05:06:24.296Z,18.99
2018-07-05T05:07:24.282Z,19.00
2018-07-05T05:08:24.279Z,19.04
2018-07-05T05:09:24.250Z,19.10
2018-07-05T05:10:24.239Z,19.04
2018-07-05T05:11:24.227Z,19.18
2018-07-05T05:12:24.216Z,19.13
2018-07-05T05:13:24.203Z,19.14
2018-07-05T05:14:24.188Z,19.25
2018-07-05T05:15:24.188Z,19.21
2018-07-05T05:16:24.162Z,19.25
2018-07-05T05:17:24.147Z,19.21
2018-07-05T05:18:24.141Z,19.19
2018-07-05T05:19:24.123Z,19.33
2018-07-05T05:20:24.107Z,19.29
2018-07-05T05:21:24.094Z,19.31
2018-07-05T05:22:24.087Z,19.25
2018-07-05T05:23:24.071Z,19.40
2018-07-05T05:24:24.057Z,19.40
2018-07-05T05:25:24.045Z,19.41
2018-07-05T05:26:24.039Z,19.33
2018-07-05T05:27:24.022Z,19.26
2018-07-05T05:28:24.006Z,19.26
2018-07-05T05:29:23.997Z,19.28
2018-07-05T05:30:23.997Z,19.23
2018-07-05T05:31:23.974Z,19.23
2018-07-05T05:32:23.958Z,19.32
2018-07-05T05:33:23.951Z,19.14
2018-07-05T05:34:23.935Z,19.16
2018-07-05T05:35:23.917Z,19.22
2018-07-05T05:36:23.904Z,19.25
2018-07-05T05:37:23.889Z,19.22
2018-07-05T05:38:23.878Z,19.22
2018-07-05T05:39:23.867Z,19.16
2018-07-05T05:40:23.851Z,19.22
2018-07-05T05:41:23.837Z,19.26
2018-07-05T05:42:23.823Z,19.28
2018-07-05T05:43:23.811Z,19.32
2018-07-05T05:44:23.798Z,19.22
2018-07-05T05:45:23.787Z,19.32
2018-07-05T05:46:23.776Z,19.25
2018-07-05T05:47:23.764Z,19.26
2018-07-05T05:48:23.747Z,19.32
2018-07-05T05:49:23.732Z,19.32
2018-07-05T05:50:23.725Z,19.32
2018-07-05T05:51:23.716Z,19.32
2018-07-05T05:52:23.695Z,19.31
2018-07-05T05:53:23.682Z,19.43
2018-07-05T05:54:23.673Z,19.40
2018-07-05T05:55:23.806Z,19.29
2018-07-05T05:56:23.640Z,19.36
2018-07-05T05:57:23.627Z,19.41
2018-07-05T05:58:23.666Z,19.47
2018-07-05T05:59:23.601Z,19.54
2018-07-05T06:00:23.585Z,19.55
2018-07-05T06:01:23.576Z,19.62
2018-07-05T06:02:23.563Z,19.59
2018-07-05T06:03:23.554Z,19.56
2018-07-05T06:04:23.536Z,19.55
2018-07-05T06:05:23.521Z,19.63
2018-07-05T06:06:23.509Z,19.63
2018-07-05T06:07:23.495Z,19.61
2018-07-05T06:08:23.486Z,19.58
2018-07-05T06:09:23.477Z,19.61
2018-07-05T06:10:23.465Z,19.62
2018-07-05T06:11:23.449Z,19.61
2018-07-05T06:12:23.437Z,19.68
2018-07-05T06:13:23.417Z,19.77
2018-07-05T06:14:23.412Z,19.84
2018-07-05T06:15:23.454Z,19.76
2018-07-05T06:16:23.380Z,19.76
2018-07-05T06:17:23.364Z,19.61
2018-07-05T06:18:23.370Z,19.71
2018-07-05T06:19:23.341Z,19.68
2018-07-05T06:20:23.332Z,19.66
2018-07-05T06:21:23.317Z,19.65
2018-07-05T06:22:23.300Z,19.83
2018-07-05T06:23:23.288Z,19.92
2018-07-05T06:24:23.277Z,19.95
2018-07-05T06:25:23.263Z,19.96
2018-07-05T06:26:23.254Z,19.91
2018-07-05T06:27:23.237Z,19.96
2018-07-05T06:28:23.229Z,20.02
2018-07-05T06:29:23.212Z,20.14
2018-07-05T06:30:23.248Z,20.18
2018-07-05T06:31:23.181Z,20.21
2018-07-05T06:32:23.172Z,20.31
2018-07-05T06:33:23.156Z,20.35
2018-07-05T06:34:23.146Z,20.42
2018-07-05T06:35:23.138Z,20.58
2018-07-05T06:36:23.115Z,20.62
2018-07-05T06:37:23.102Z,20.70
2018-07-05T06:38:23.098Z,20.72
2018-07-05T06:39:23.079Z,20.82
2018-07-05T06:40:23.066Z,20.79
2018-07-05T06:41:23.056Z,20.91
2018-07-05T06:42:23.041Z,20.85
2018-07-05T06:43:23.026Z,20.77
2018-07-05T06:44:23.014Z,20.87
2018-07-05T06:45:23.001Z,20.79
2018-07-05T06:46:22.991Z,20.89
2018-07-05T06:47:23.023Z,20.91
2018-07-05T06:48:22.968Z,20.80
2018-07-05T06:49:22.993Z,20.85
2018-07-05T06:50:22.936Z,20.73
2018-07-05T06:51:23.055Z,20.77
2018-07-05T06:52:22.916Z,20.85
2018-07-05T06:53:22.899Z,20.89
2018-07-05T06:54:22.889Z,20.73
2018-07-05T06:55:22.875Z,20.74
2018-07-05T06:56:22.857Z,20.79
2018-07-05T06:57:22.846Z,20.79
2018-07-05T06:58:22.835Z,20.87
2018-07-05T06:59:22.822Z,20.85
2018-07-05T07:00:22.812Z,20.89
2018-07-05T07:01:22.795Z,20.92
2018-07-05T07:02:22.785Z,20.98
2018-07-05T07:03:22.772Z,21.03
2018-07-05T07:04:22.754Z,21.10
2018-07-05T07:05:22.744Z,21.09
2018-07-05T07:06:22.734Z,21.28
2018-07-05T07:07:22.720Z,21.28
2018-07-05T07:08:22.708Z,21.31
2018-07-05T07:09:22.695Z,21.28
2018-07-05T07:10:22.833Z,21.27
2018-07-05T07:11:22.672Z,21.28
2018-07-05T07:12:22.658Z,21.21
2018-07-05T07:13:22.644Z,21.32
2018-07-05T07:14:22.637Z,21.31
2018-07-05T07:15:22.618Z,21.43
2018-07-05T07:16:22.605Z,21.40
2018-07-05T07:17:22.595Z,21.44
2018-07-05T07:18:22.586Z,21.37
2018-07-05T07:19:22.576Z,21.47
2018-07-05T07:20:22.556Z,21.42
2018-07-05T07:21:22.581Z,21.44
2018-07-05T07:22:22.542Z,21.53
2018-07-05T07:23:22.519Z,21.54
2018-07-05T07:24:22.505Z,21.67
2018-07-05T07:25:22.504Z,21.79
2018-07-05T07:26:22.487Z,21.77
2018-07-05T07:27:22.471Z,21.88
2018-07-05T07:28:22.455Z,21.79
2018-07-05T07:29:22.455Z,21.75
2018-07-05T07:30:22.431Z,21.68
2018-07-05T07:31:22.555Z,21.72
2018-07-05T07:32:22.406Z,21.74
2018-07-05T07:33:22.395Z,21.71
2018-07-05T07:34:22.559Z,21.86
2018-07-05T07:35:22.375Z,22.06
2018-07-05T07:36:22.359Z,22.12
2018-07-05T07:37:22.368Z,22.20
2018-07-05T07:38:22.337Z,22.31
2018-07-05T07:39:22.325Z,22.30
2018-07-05T07:40:22.312Z,22.18
2018-07-05T07:41:22.299Z,22.28
2018-07-05T07:42:22.287Z,22.39
2018-07-05T07:43:22.276Z,22.35
2018-07-05T07:44:22.263Z,22.27
2018-07-05T07:45:22.276Z,22.21
2018-07-05T07:46:22.241Z,22.25
2018-07-05T07:47:22.224Z,22.42
2018-07-05T07:48:22.213Z,22.35
2018-07-05T07:49:22.203Z,22.40
2018-07-05T07:50:22.293Z,22.43
2018-07-05T07:51:22.278Z,22.39
2018-07-05T07:52:22.162Z,22.49
2018-07-05T07:53:22.159Z,22.39
2018-07-05T07:54:22.145Z,22.51
2018-07-05T07:55:22.133Z,22.40
2018-07-05T07:56:22.115Z,22.37
2018-07-05T07:57:22.105Z,22.37
2018-07-05T07:58:22.092Z,22.40
2018-07-05T07:59:22.085Z,22.42
2018-07-05T08:00:22.068Z,22.52
2018-07-05T08:01:22.056Z,22.61
2018-07-05T08:02:22.044Z,22.68
2018-07-05T08:03:22.036Z,22.76
2018-07-05T08:04:22.022Z,22.85
2018-07-05T08:05:22.006Z,22.80
2018-07-05T08:06:22.005Z,22.73
2018-07-05T08:07:21.986Z,22.82
2018-07-05T08:08:21.972Z,22.80
2018-07-05T08:09:21.963Z,22.92
2018-07-05T08:10:21.950Z,22.86
2018-07-05T08:11:21.937Z,22.86
2018-07-05T08:12:21.925Z,22.91
2018-07-05T08:13:21.916Z,23.01
2018-07-05T08:14:21.901Z,23.15
2018-07-05T08:15:21.895Z,23.15
2018-07-05T08:16:21.877Z,23.13
2018-07-05T08:17:21.866Z,23.01
2018-07-05T08:18:21.869Z,23.02
2018-07-05T08:19:21.853Z,22.94
2018-07-05T08:20:21.842Z,22.95
2018-07-05T08:21:21.821Z,23.13
2018-07-05T08:22:21.810Z,23.10
2018-07-05T08:23:21.797Z,23.02
2018-07-05T08:24:21.784Z,23.05
2018-07-05T08:25:21.775Z,23.15
2018-07-05T08:26:21.765Z,23.23
2018-07-05T08:27:21.752Z,23.31
2018-07-05T08:28:21.743Z,23.36
2018-07-05T08:29:21.734Z,23.35
2018-07-05T08:30:21.720Z,23.36
2018-07-05T08:31:21.757Z,23.25
2018-07-05T08:32:21.696Z,23.35
2018-07-05T08:33:21.746Z,23.48
2018-07-05T08:34:21.675Z,23.57
2018-07-05T08:35:21.660Z,23.65
2018-07-05T08:36:21.648Z,23.70
2018-07-05T08:37:21.642Z,23.70
2018-07-05T08:38:21.629Z,23.68
2018-07-05T08:39:21.617Z,23.70
2018-07-05T08:40:21.603Z,23.73
2018-07-05T08:41:21.593Z,23.60
2018-07-05T08:42:21.582Z,23.61
2018-07-05T08:43:21.578Z,23.72
2018-07-05T08:44:21.556Z,23.73
2018-07-05T08:45:21.558Z,23.78
2018-07-05T08:46:21.556Z,23.76
2018-07-05T08:47:21.524Z,23.80
2018-07-05T08:48:21.514Z,23.78
2018-07-05T08:49:21.605Z,23.85
2018-07-05T08:50:21.502Z,23.95
2018-07-05T08:51:21.490Z,24.02
2018-07-05T08:52:21.468Z,24.03
2018-07-05T08:53:21.458Z,24.03
2018-07-05T08:54:21.454Z,24.22
2018-07-05T08:55:21.435Z,24.30
2018-07-05T08:56:21.423Z,24.42
2018-07-05T08:57:21.412Z,24.45
2018-07-05T08:58:21.462Z,24.53
2018-07-05T08:59:21.393Z,24.55
2018-07-05T09:00:21.393Z,24.40
2018-07-05T09:01:21.368Z,24.61
2018-07-05T09:02:21.355Z,24.60
2018-07-05T09:03:21.349Z,24.61
2018-07-05T09:04:21.335Z,24.53
2018-07-05T09:05:21.493Z,24.76
2018-07-05T09:06:21.310Z,24.80
2018-07-05T09:07:21.314Z,24.67
2018-07-05T09:08:21.298Z,24.80
2018-07-05T09:09:21.277Z,24.80
2018-07-05T09:10:21.273Z,24.60
2018-07-05T09:11:21.258Z,24.46
2018-07-05T09:12:21.246Z,24.58
2018-07-05T09:13:21.235Z,24.77
2018-07-05T09:14:21.227Z,24.76
2018-07-05T09:15:21.214Z,24.80
2018-07-05T09:16:21.204Z,24.81
2018-07-05T09:17:21.258Z,24.76
2018-07-05T09:18:21.254Z,24.78
2018-07-05T09:19:21.175Z,24.77
2018-07-05T09:20:21.160Z,24.87
2018-07-05T09:21:21.156Z,24.96
2018-07-05T09:22:21.140Z,24.93
2018-07-05T09:23:21.224Z,24.60
2018-07-05T09:24:21.125Z,24.62
2018-07-05T09:25:21.108Z,24.93
2018-07-05T09:26:21.105Z,25.14
2018-07-05T09:27:21.087Z,25.30
2018-07-05T09:28:21.072Z,25.33
2018-07-05T09:29:21.134Z,25.47
2018-07-05T09:30:21.065Z,25.45
2018-07-05T09:31:21.056Z,25.57
2018-07-05T09:32:21.082Z,25.50
2018-07-05T09:33:21.031Z,25.39
2018-07-05T09:34:21.011Z,25.45
2018-07-05T09:35:21.005Z,25.45
2018-07-05T09:36:20.997Z,25.50
2018-07-05T09:37:20.987Z,25.45
2018-07-05T09:38:20.971Z,25.39
2018-07-05T09:39:20.963Z,25.39
2018-07-05T09:40:20.947Z,25.54
2018-07-05T09:41:20.939Z,25.65
2018-07-05T09:42:20.926Z,25.64
2018-07-05T09:43:20.921Z,25.46
2018-07-05T09:44:20.906Z,25.35
2018-07-05T09:45:20.937Z,25.17
2018-07-05T09:46:20.886Z,25.17
2018-07-05T09:47:20.886Z,25.27
2018-07-05T09:48:20.866Z,25.27
2018-07-05T09:49:20.861Z,25.42
2018-07-05T09:50:20.843Z,25.50
2018-07-05T09:51:20.833Z,25.47
2018-07-05T09:52:20.861Z,25.45
2018-07-05T09:53:20.813Z,25.64
2018-07-05T09:54:20.811Z,25.62
2018-07-05T09:55:20.796Z,25.46
2018-07-05T09:56:20.780Z,25.54
2018-07-05T09:57:20.770Z,25.51
2018-07-05T09:58:20.758Z,25.47
2018-07-05T09:59:20.749Z,25.42
2018-07-05T10:00:20.741Z,25.50
2018-07-05T10:01:20.730Z,25.32
2018-07-05T10:02:20.722Z,25.23
2018-07-05T10:03:20.717Z,25.40
2018-07-05T10:04:20.696Z,25.57
2018-07-05T10:05:20.690Z,25.79
2018-07-05T10:06:20.693Z,25.91
2018-07-05T10:07:20.676Z,26.17
2018-07-05T10:08:20.655Z,26.23
2018-07-05T10:09:20.666Z,26.29
2018-07-05T10:10:20.639Z,26.25
2018-07-05T10:11:20.625Z,26.36
2018-07-05T10:12:20.617Z,26.07
2018-07-05T10:13:20.780Z,26.13
2018-07-05T10:14:20.598Z,26.21
2018-07-05T10:15:20.586Z,26.15
2018-07-05T10:16:20.581Z,26.26
2018-07-05T10:17:20.567Z,26.20
2018-07-05T10:18:20.556Z,26.32
2018-07-05T10:19:20.603Z,26.15
2018-07-05T10:20:20.540Z,26.29
2018-07-05T10:21:20.529Z,26.48
2018-07-05T10:22:20.639Z,26.63
2018-07-05T10:23:20.504Z,26.81
2018-07-05T10:24:20.497Z,26.77
2018-07-05T10:25:20.586Z,26.58
2018-07-05T10:26:20.480Z,26.55
2018-07-05T10:27:20.465Z,26.47
2018-07-05T10:28:20.456Z,26.37
2018-07-05T10:29:20.445Z,26.54
2018-07-05T10:30:20.439Z,26.58
2018-07-05T10:31:20.426Z,26.67
2018-07-05T10:32:20.417Z,26.63
2018-07-05T10:33:20.405Z,26.72
2018-07-05T10:34:20.405Z,26.77
2018-07-05T10:35:20.392Z,26.82
2018-07-05T10:36:20.375Z,26.84
2018-07-05T10:37:20.368Z,26.67
2018-07-05T10:38:20.478Z,26.66
2018-07-05T10:39:20.348Z,26.80
2018-07-05T10:40:20.341Z,26.92
2018-07-05T10:41:20.352Z,27.09
2018-07-05T10:42:20.332Z,27.09
2018-07-05T10:43:20.309Z,27.21
2018-07-05T10:44:20.299Z,27.27
2018-07-05T10:45:20.300Z,27.24
2018-07-05T10:46:20.283Z,27.03
2018-07-05T10:47:20.270Z,27.03
2018-07-05T10:48:20.268Z,26.80
2018-07-05T10:49:20.254Z,26.58
2018-07-05T10:50:20.245Z,26.57
2018-07-05T10:51:20.245Z,26.75
2018-07-05T10:52:20.230Z,26.99
2018-07-05T10:53:20.214Z,27.03
2018-07-05T10:54:20.210Z,27.03
2018-07-05T10:55:20.273Z,26.80
2018-07-05T10:56:20.184Z,26.82
2018-07-05T10:57:20.176Z,26.60
2018-07-05T10:58:20.174Z,26.70
2018-07-05T10:59:20.159Z,26.77
2018-07-05T11:00:20.145Z,26.58
2018-07-05T11:01:20.145Z,26.69
2018-07-05T11:02:20.231Z,26.47
2018-07-05T11:03:20.121Z,26.60
2018-07-05T11:04:20.117Z,26.62
2018-07-05T11:05:20.103Z,26.88
2018-07-05T11:06:20.089Z,27.02
2018-07-05T11:07:20.080Z,27.07
2018-07-05T11:08:20.072Z,27.14
2018-07-05T11:09:20.063Z,27.03
2018-07-05T11:10:20.052Z,27.00
2018-07-05T11:11:20.044Z,27.18
2018-07-05T11:12:20.035Z,27.28
2018-07-05T11:13:20.029Z,27.28
2018-07-05T11:14:20.069Z,27.39
2018-07-05T11:15:20.007Z,27.03
2018-07-05T11:16:20.006Z,27.00
2018-07-05T11:17:19.985Z,26.88
2018-07-05T11:18:20.071Z,26.76
2018-07-05T11:19:19.965Z,26.82
2018-07-05T11:20:19.955Z,26.76
2018-07-05T11:21:19.947Z,26.95
2018-07-05T11:22:19.937Z,26.76
2018-07-05T11:23:19.942Z,27.10
2018-07-05T11:24:19.921Z,26.89
2018-07-05T11:25:19.916Z,27.03
2018-07-05T11:26:19.898Z,26.99
2018-07-05T11:27:19.896Z,27.09
2018-07-05T11:28:19.886Z,26.88
2018-07-05T11:29:19.875Z,26.80
2018-07-05T11:30:19.888Z,26.80
2018-07-05T11:31:19.855Z,26.69
2018-07-05T11:32:19.845Z,26.97
2018-07-05T11:33:19.839Z,26.95
2018-07-05T11:34:19.925Z,27.00
2018-07-05T11:35:19.817Z,27.04
2018-07-05T11:36:19.860Z,27.25
2018-07-05T11:37:19.801Z,27.34
2018-07-05T11:38:19.788Z,27.37
2018-07-05T11:39:19.797Z,27.12
2018-07-05T11:40:19.776Z,27.00
2018-07-05T11:41:19.769Z,26.76
2018-07-05T11:42:19.809Z,26.72
2018-07-05T11:43:19.741Z,26.77
2018-07-05T11:44:19.737Z,26.70
2018-07-05T11:45:19.729Z,26.80
2018-07-05T11:46:19.718Z,26.82
2018-07-05T11:47:19.701Z,26.88
2018-07-05T11:48:19.695Z,26.95
2018-07-05T11:49:19.686Z,27.29
2018-07-05T11:50:19.683Z,27.25
2018-07-05T11:51:19.666Z,27.34
2018-07-05T11:52:19.663Z,27.27
2018-07-05T11:53:19.647Z,27.32
2018-07-05T11:54:19.636Z,27.07
2018-07-05T11:55:19.634Z,27.02
2018-07-05T11:56:19.626Z,27.21
2018-07-05T11:57:19.605Z,27.36
2018-07-05T11:58:19.649Z,27.50
2018-07-05T11:59:19.597Z,27.72
2018-07-05T12:00:19.583Z,27.81
2018-07-05T12:01:19.575Z,27.77
2018-07-05T12:02:19.561Z,27.78
2018-07-05T12:03:19.552Z,27.65
2018-07-05T12:04:19.548Z,27.57
2018-07-05T12:05:19.543Z,27.50
2018-07-05T12:06:19.527Z,27.27
2018-07-05T12:07:19.512Z,27.32
2018-07-05T12:08:19.526Z,27.27
2018-07-05T12:09:19.504Z,27.28
2018-07-05T12:10:19.484Z,27.36
2018-07-05T12:11:19.476Z,27.59
2018-07-05T12:12:19.473Z,27.66
2018-07-05T12:13:19.460Z,27.81
2018-07-05T12:14:19.446Z,28.03
2018-07-05T12:15:19.444Z,28.03
2018-07-05T12:16:19.438Z,27.75
2018-07-05T12:17:19.426Z,27.34
2018-07-05T12:18:19.413Z,27.34
2018-07-05T12:19:19.410Z,27.31
2018-07-05T12:20:19.397Z,27.31
2018-07-05T12:21:19.386Z,27.63
2018-07-05T12:22:19.376Z,27.69
2018-07-05T12:23:19.367Z,27.69
2018-07-05T12:24:19.373Z,27.59
2018-07-05T12:25:19.345Z,27.59
2018-07-05T12:26:19.336Z,27.77
2018-07-05T12:27:19.331Z,27.84
2018-07-05T12:28:19.316Z,27.94
2018-07-05T12:29:19.314Z,28.00
2018-07-05T12:30:19.308Z,28.25
2018-07-05T12:31:19.293Z,28.37
2018-07-05T12:32:19.490Z,28.46
2018-07-05T12:33:19.277Z,28.56
2018-07-05T12:34:19.264Z,28.74
2018-07-05T12:35:19.260Z,28.76
2018-07-05T12:36:19.250Z,28.52
2018-07-05T12:37:19.238Z,28.33
2018-07-05T12:38:19.312Z,28.15
2018-07-05T12:39:19.285Z,28.18
2018-07-05T12:40:19.246Z,27.77
2018-07-05T12:41:19.202Z,27.77
2018-07-05T12:42:19.192Z,27.55
2018-07-05T12:43:19.182Z,27.62
2018-07-05T12:44:19.183Z,27.77
2018-07-05T12:45:19.166Z,27.88
2018-07-05T12:46:19.154Z,27.82
2018-07-05T12:47:19.160Z,28.12
2018-07-05T12:48:19.196Z,28.33
2018-07-05T12:49:19.133Z,28.37
2018-07-05T12:50:19.119Z,28.36
2018-07-05T12:51:19.109Z,28.18
2018-07-05T12:52:19.105Z,27.77